createdAt,value
2023-02-13T00:00:52.286Z,36.17
2023-02-13T00:03:21.695Z,38.17
2023-02-13T00:05:49.753Z,37.47
2023-02-13T00:08:17.693Z,34.67
2023-02-13T00:10:45.751Z,35.00
2023-02-13T00:13:13.735Z,41.00
2023-02-13T00:15:41.895Z,36.23
2023-02-13T00:18:09.870Z,43.20
2023-02-13T00:20:39.214Z,39.87
2023-02-13T00:23:07.230Z,43.13
2023-02-13T00:25:35.160Z,40.17
2023-02-13T00:28:03.205Z,40.60
2023-02-13T00:30:31.346Z,36.77
2023-02-13T00:32:59.343Z,37.40
2023-02-13T00:35:27.377Z,37.03
2023-02-13T00:37:56.696Z,38.20
2023-02-13T00:40:25.890Z,40.53
2023-02-13T00:42:53.903Z,37.93
2023-02-13T00:45:21.872Z,37.57
2023-02-13T00:47:49.878Z,42.97
2023-02-13T00:50:18.059Z,36.70
2023-02-13T00:52:46.099Z,35.60
2023-02-13T00:55:15.509Z,39.23
2023-02-13T00:57:43.675Z,36.93
2023-02-13T01:00:14.235Z,39.30
2023-02-13T01:02:42.926Z,34.13
2023-02-13T01:05:12.449Z,34.03
2023-02-13T01:07:40.564Z,35.70
2023-02-13T01:10:09.065Z,40.97
2023-02-13T01:12:38.407Z,38.07
2023-02-13T01:15:08.693Z,37.90
2023-02-13T01:17:36.668Z,36.00
2023-02-13T01:20:05.095Z,38.83
2023-02-13T01:22:33.089Z,42.60
2023-02-13T01:25:01.072Z,39.53
2023-02-13T01:27:32.525Z,40.17
2023-02-13T01:30:02.467Z,41.47
2023-02-13T01:32:30.849Z,35.93
2023-02-13T01:34:58.839Z,38.53
2023-02-13T01:37:26.801Z,35.20
2023-02-13T01:39:56.417Z,34.90
2023-02-13T01:42:28.139Z,38.27
2023-02-13T01:44:57.836Z,38.67
2023-02-13T01:47:30.770Z,33.63
2023-02-13T01:50:09.999Z,38.20
2023-02-13T01:52:41.115Z,38.50
2023-02-13T01:55:11.357Z,38.00
2023-02-13T01:57:41.329Z,36.30
2023-02-13T02:00:14.493Z,38.07
2023-02-13T02:02:54.322Z,36.97
2023-02-13T02:05:29.502Z,34.77
2023-02-13T02:08:01.255Z,35.17
2023-02-13T02:10:29.644Z,33.77
2023-02-13T02:13:06.167Z,33.67
2023-02-13T02:15:35.814Z,32.93
2023-02-13T02:18:07.936Z,32.50
2023-02-13T02:21:03.549Z,35.17
2023-02-13T02:23:49.087Z,35.70
2023-02-13T02:27:06.767Z,33.67
2023-02-13T02:30:09.222Z,32.10
2023-02-13T02:32:58.722Z,35.03
2023-02-13T02:35:37.749Z,34.80
2023-02-13T02:38:20.202Z,37.57
2023-02-13T02:41:02.393Z,35.67
2023-02-13T02:43:50.389Z,34.13
2023-02-13T02:46:28.922Z,37.80
2023-02-13T02:49:23.090Z,37.83
2023-02-13T02:52:00.758Z,32.10
2023-02-13T02:54:52.914Z,34.27
2023-02-13T02:57:26.096Z,36.13
2023-02-13T03:00:17.650Z,31.90
2023-02-13T03:03:03.516Z,32.70
2023-02-13T03:05:54.629Z,32.33
2023-02-13T03:08:42.731Z,36.57
2023-02-13T03:11:28.445Z,36.73
2023-02-13T03:13:58.456Z,32.60
2023-02-13T03:16:44.796Z,28.27
2023-02-13T03:19:36.235Z,31.20
2023-02-13T03:22:23.690Z,36.43
2023-02-13T03:25:00.517Z,30.83
2023-02-13T03:27:57.128Z,30.17
2023-02-13T03:30:38.971Z,31.83
2023-02-13T03:33:19.224Z,33.10
2023-02-13T03:36:12.736Z,36.53
2023-02-13T03:38:48.694Z,32.10
2023-02-13T03:41:23.783Z,30.13
2023-02-13T03:44:06.104Z,36.67
2023-02-13T03:46:38.931Z,29.80
2023-02-13T03:49:29.109Z,33.60
2023-02-13T03:52:03.149Z,32.70
2023-02-13T03:54:54.528Z,31.83
2023-02-13T03:57:42.779Z,32.13
2023-02-13T04:00:14.081Z,30.53
2023-02-13T04:02:56.768Z,33.77
2023-02-13T04:05:29.330Z,35.20
2023-02-13T04:07:57.330Z,31.63
2023-02-13T04:10:32.718Z,34.87
2023-02-13T04:13:09.613Z,35.70
2023-02-13T04:15:43.476Z,31.97
2023-02-13T04:18:16.413Z,34.60
2023-02-13T04:20:45.049Z,31.77
2023-02-13T04:23:13.871Z,33.33
2023-02-13T04:25:46.717Z,32.60
2023-02-13T04:28:14.721Z,33.93
2023-02-13T04:30:43.028Z,32.00
2023-02-13T04:33:11.033Z,35.57
2023-02-13T04:35:39.011Z,30.67
2023-02-13T04:38:07.073Z,29.90
2023-02-13T04:40:35.056Z,29.30
2023-02-13T04:43:04.470Z,29.87
2023-02-13T04:45:32.703Z,32.33
2023-02-13T04:48:00.816Z,36.07
2023-02-13T04:50:28.821Z,31.97
2023-02-13T04:52:58.705Z,29.27
2023-02-13T04:55:28.157Z,32.73
2023-02-13T04:57:56.954Z,33.47
2023-02-13T05:00:28.067Z,33.30
2023-02-13T05:03:02.089Z,30.97
2023-02-13T05:05:30.060Z,30.37
2023-02-13T05:07:58.048Z,30.57
2023-02-13T05:10:26.032Z,31.30
2023-02-13T05:12:54.061Z,26.50
2023-02-13T05:15:23.532Z,26.37
2023-02-13T05:17:53.333Z,32.77
2023-02-13T05:20:21.931Z,30.97
2023-02-13T05:23:09.160Z,32.53
2023-02-13T05:25:39.190Z,24.80
2023-02-13T05:28:28.134Z,26.17
2023-02-13T05:30:56.577Z,25.07
2023-02-13T05:33:26.251Z,25.40
2023-02-13T05:35:54.218Z,24.87
2023-02-13T05:38:22.210Z,28.83
2023-02-13T05:40:50.212Z,34.83
2023-02-13T05:43:18.188Z,30.60
2023-02-13T05:45:46.196Z,28.53
2023-02-13T05:48:14.216Z,34.87
2023-02-13T05:50:43.523Z,26.53
2023-02-13T05:53:11.498Z,31.40
2023-02-13T05:55:40.522Z,29.13
2023-02-13T05:58:09.509Z,27.53
2023-02-13T06:00:37.565Z,28.07
2023-02-13T06:03:05.741Z,29.80
2023-02-13T06:05:33.808Z,25.37
2023-02-13T06:08:03.364Z,26.53
2023-02-13T06:10:31.344Z,28.73
2023-02-13T06:12:59.361Z,31.07
2023-02-13T06:15:27.381Z,28.43
2023-02-13T06:17:55.367Z,24.83
2023-02-13T06:20:23.339Z,30.13
2023-02-13T06:22:51.881Z,24.87
2023-02-13T06:25:21.861Z,24.67
2023-02-13T06:27:50.372Z,27.90
2023-02-13T06:30:19.158Z,25.27
2023-02-13T06:32:48.459Z,28.07
2023-02-13T06:35:17.016Z,29.80
2023-02-13T06:37:45.055Z,27.30
2023-02-13T06:40:15.101Z,27.77
2023-02-13T06:42:45.190Z,27.07
2023-02-13T06:45:13.951Z,27.13
2023-02-13T06:47:43.458Z,28.40
2023-02-13T06:50:13.635Z,25.30
2023-02-13T06:52:46.362Z,31.43
2023-02-13T06:55:14.460Z,27.70
2023-02-13T06:57:44.241Z,29.77
2023-02-13T07:00:14.310Z,28.50
2023-02-13T07:02:43.065Z,25.77
2023-02-13T07:05:11.632Z,26.00
2023-02-13T07:07:41.172Z,25.97
2023-02-13T07:10:10.948Z,28.90
2023-02-13T07:12:38.933Z,26.43
2023-02-13T07:15:09.252Z,25.00
2023-02-13T07:17:37.282Z,23.87
2023-02-13T07:20:05.848Z,24.23
2023-02-13T07:22:34.157Z,28.20
2023-02-13T07:25:02.642Z,25.97
2023-02-13T07:27:30.638Z,25.70
2023-02-13T07:29:58.691Z,30.87
2023-02-13T07:32:28.069Z,30.57
2023-02-13T07:35:02.174Z,36.57
2023-02-13T07:37:31.070Z,41.43
2023-02-13T07:39:59.288Z,43.23
2023-02-13T07:42:27.311Z,50.50
2023-02-13T07:44:55.321Z,43.90
2023-02-13T07:47:23.258Z,43.50
2023-02-13T07:49:52.592Z,45.50
2023-02-13T07:52:20.556Z,42.60
2023-02-13T07:54:48.533Z,41.57
2023-02-13T07:57:17.120Z,42.30
2023-02-13T07:59:45.097Z,43.03
2023-02-13T08:02:14.712Z,42.13
2023-02-13T08:04:46.332Z,38.93
2023-02-13T08:07:17.285Z,42.70
2023-02-13T08:10:03.880Z,42.30
2023-02-13T08:12:32.488Z,42.23
2023-02-13T08:15:00.477Z,40.57
2023-02-13T08:17:28.490Z,43.33
2023-02-13T08:19:56.586Z,40.33
2023-02-13T08:22:25.947Z,45.33
2023-02-13T08:24:54.289Z,40.30
2023-02-13T08:27:23.076Z,38.73
2023-02-13T08:29:51.394Z,38.80
2023-02-13T08:32:19.586Z,42.63
2023-02-13T08:34:47.633Z,38.73
2023-02-13T08:37:15.866Z,38.50
2023-02-13T08:39:45.486Z,41.03
2023-02-13T08:42:15.870Z,38.90
2023-02-13T08:44:44.534Z,40.90
2023-02-13T08:47:12.518Z,40.20
2023-02-13T08:49:40.488Z,38.37
2023-02-13T08:52:08.447Z,45.13
2023-02-13T08:54:36.488Z,37.23
2023-02-13T08:57:06.150Z,39.57
2023-02-13T08:59:34.300Z,41.00
2023-02-13T09:02:02.273Z,39.47
2023-02-13T09:04:30.224Z,40.87
2023-02-13T09:06:58.246Z,37.93
2023-02-13T09:09:26.230Z,42.60
2023-02-13T09:11:57.801Z,43.63
2023-02-13T09:14:27.226Z,37.70
2023-02-13T09:16:55.271Z,40.60
2023-02-13T09:19:23.482Z,42.30
2023-02-13T09:21:51.422Z,40.43
2023-02-13T09:24:19.429Z,38.60
2023-02-13T09:26:47.454Z,38.53
2023-02-13T09:29:15.698Z,42.23
2023-02-13T09:31:45.113Z,43.53
2023-02-13T09:34:13.194Z,43.83
2023-02-13T09:36:41.192Z,51.23
2023-02-13T09:39:09.117Z,46.63
2023-02-13T09:41:40.082Z,36.93
2023-02-13T09:44:33.707Z,40.17
2023-02-13T09:47:06.512Z,38.40
2023-02-13T09:49:38.514Z,43.93
2023-02-13T09:52:06.557Z,36.73
2023-02-13T09:54:35.765Z,37.97
2023-02-13T09:57:09.277Z,39.13
2023-02-13T09:59:49.278Z,32.83
2023-02-13T10:02:39.146Z,24.43
2023-02-13T10:05:20.268Z,36.37
2023-02-13T10:07:58.815Z,30.07
2023-02-13T10:10:35.626Z,38.07
2023-02-13T10:13:32.381Z,38.90
2023-02-13T10:16:10.211Z,41.07
2023-02-13T10:18:49.102Z,33.17
2023-02-13T10:21:22.552Z,47.30
2023-02-13T10:23:57.038Z,39.23
2023-02-13T10:26:42.462Z,35.63
2023-02-13T10:29:35.809Z,45.73
2023-02-13T10:32:08.945Z,40.47
2023-02-13T10:34:44.083Z,40.60
2023-02-13T10:37:15.823Z,37.47
2023-02-13T10:39:46.578Z,41.00
2023-02-13T10:42:23.899Z,44.47
2023-02-13T10:45:03.350Z,36.70
2023-02-13T10:47:49.514Z,45.87
2023-02-13T10:50:27.962Z,42.43
2023-02-13T10:53:09.244Z,40.73
2023-02-13T10:56:01.404Z,46.10
2023-02-13T10:58:40.343Z,46.60
2023-02-13T11:01:15.452Z,39.13
2023-02-13T11:03:45.468Z,38.23
2023-02-13T11:06:18.008Z,35.77
2023-02-13T11:08:48.807Z,33.73
2023-02-13T11:11:31.722Z,37.90
2023-02-13T11:14:11.697Z,36.13
2023-02-13T11:16:43.134Z,35.13
2023-02-13T11:19:19.185Z,30.97
2023-02-13T11:21:54.250Z,36.90
2023-02-13T11:24:24.501Z,35.50
2023-02-13T11:26:54.805Z,40.03
2023-02-13T11:29:27.003Z,39.42
2023-02-13T11:32:20.019Z,37.73
2023-02-13T11:34:50.627Z,33.23
2023-02-13T11:37:26.322Z,38.27
2023-02-13T11:39:56.214Z,34.43
2023-02-13T11:42:30.609Z,33.20
2023-02-13T11:45:02.110Z,43.30
2023-02-13T11:47:41.938Z,39.90
2023-02-13T11:50:23.633Z,40.10
2023-02-13T11:52:59.440Z,38.73
2023-02-13T11:55:31.695Z,35.33
2023-02-13T11:58:02.424Z,37.85
2023-02-13T12:00:37.715Z,41.97
2023-02-13T12:03:28.073Z,50.10
2023-02-13T12:06:05.276Z,49.07
2023-02-13T12:08:37.286Z,44.95
2023-02-13T12:11:21.982Z,46.90
2023-02-13T12:13:51.309Z,51.08
2023-02-13T12:16:31.354Z,52.47
2023-02-13T12:19:04.714Z,47.67
2023-02-13T12:21:57.733Z,47.67
2023-02-13T12:24:45.508Z,47.35
2023-02-13T12:27:20.610Z,48.92
2023-02-13T12:30:14.261Z,47.85
2023-02-13T12:32:53.559Z,49.00
2023-02-13T12:35:42.718Z,49.45
2023-02-13T12:38:23.726Z,46.53
2023-02-13T12:41:15.643Z,46.83
2023-02-13T12:44:37.170Z,46.08
2023-02-13T12:47:16.456Z,50.95
2023-02-13T12:50:03.352Z,48.70
2023-02-13T12:52:44.386Z,54.00
2023-02-13T12:55:29.702Z,47.42
2023-02-13T12:58:17.998Z,52.08
2023-02-13T13:00:54.733Z,50.65
2023-02-13T13:03:34.987Z,55.53
2023-02-13T13:06:14.624Z,48.70
2023-02-13T13:09:02.242Z,48.95
2023-02-13T13:11:57.594Z,50.95
2023-02-13T13:14:36.792Z,47.72
2023-02-13T13:17:12.794Z,54.55
2023-02-13T13:19:50.703Z,48.53
2023-02-13T13:22:23.411Z,46.38
2023-02-13T13:25:02.543Z,54.28
2023-02-13T13:27:34.526Z,45.47
2023-02-13T13:30:06.144Z,50.58
2023-02-13T13:32:35.643Z,42.03
2023-02-13T13:35:05.403Z,47.80
2023-02-13T13:37:38.465Z,44.45
2023-02-13T13:40:28.938Z,47.08
2023-02-13T13:43:04.960Z,43.72
2023-02-13T13:45:43.022Z,46.95
2023-02-13T13:48:41.614Z,44.95
2023-02-13T13:51:15.576Z,42.40
2023-02-13T13:54:36.601Z,41.20
2023-02-13T13:57:09.347Z,41.40
2023-02-13T14:00:26.112Z,39.10
2023-02-13T14:03:33.802Z,44.88
2023-02-13T14:06:09.845Z,36.97
2023-02-13T14:09:22.607Z,37.58
2023-02-13T14:11:50.670Z,37.17
2023-02-13T14:14:48.190Z,31.75
2023-02-13T14:17:18.100Z,28.27
2023-02-13T14:19:53.688Z,30.83
2023-02-13T14:22:35.204Z,28.77
2023-02-13T14:25:06.429Z,31.95
2023-02-13T14:27:37.346Z,22.27
2023-02-13T14:30:08.900Z,26.20
2023-02-13T14:32:40.863Z,22.67
2023-02-13T14:35:23.574Z,21.75
2023-02-13T14:37:54.225Z,28.48
2023-02-13T14:40:43.709Z,26.08
2023-02-13T14:43:40.626Z,23.77
2023-02-13T14:46:17.459Z,21.27
2023-02-13T14:48:54.172Z,23.05
2023-02-13T14:51:30.453Z,17.50
2023-02-13T14:54:04.930Z,20.30
2023-02-13T14:56:34.344Z,20.90
2023-02-13T14:59:12.882Z,21.05
2023-02-13T15:01:48.204Z,25.17
2023-02-13T15:04:20.475Z,21.83
2023-02-13T15:06:51.747Z,18.98
2023-02-13T15:09:32.332Z,21.48
2023-02-13T15:12:00.828Z,20.33
2023-02-13T15:14:34.446Z,20.65
2023-02-13T15:17:11.358Z,19.23
2023-02-13T15:19:46.652Z,25.98
2023-02-13T15:22:22.184Z,30.85
2023-02-13T15:24:51.749Z,29.42
2023-02-13T15:27:25.060Z,49.33
2023-02-13T15:29:58.590Z,33.75
2023-02-13T15:32:30.466Z,33.40
2023-02-13T15:34:58.677Z,32.40
2023-02-13T15:37:30.210Z,26.42
2023-02-13T15:40:15.294Z,33.88
2023-02-13T15:42:43.549Z,31.92
2023-02-13T15:45:17.615Z,36.83
2023-02-13T15:47:46.610Z,32.33
2023-02-13T15:50:20.116Z,32.08
2023-02-13T15:52:49.786Z,39.80
2023-02-13T15:55:23.470Z,41.88
2023-02-13T15:57:52.807Z,31.52
2023-02-13T16:00:26.059Z,34.65
2023-02-13T16:02:56.941Z,36.58
2023-02-13T16:05:39.560Z,35.40
2023-02-13T16:08:33.253Z,37.30
2023-02-13T16:11:30.181Z,38.50
2023-02-13T16:14:04.064Z,39.03
2023-02-13T16:16:37.553Z,40.60
2023-02-13T16:19:05.802Z,40.03
2023-02-13T16:21:35.932Z,41.17
2023-02-13T16:24:08.733Z,48.40
2023-02-13T16:26:39.293Z,44.00
2023-02-13T16:29:12.347Z,42.15
2023-02-13T16:31:41.277Z,42.75
2023-02-13T16:34:16.792Z,47.97
2023-02-13T16:36:44.782Z,42.88
2023-02-13T16:39:21.330Z,41.22
2023-02-13T16:41:50.365Z,38.47
2023-02-13T16:44:26.571Z,42.15
2023-02-13T16:46:59.454Z,41.90
2023-02-13T16:49:29.620Z,37.20
2023-02-13T16:52:18.533Z,39.30
2023-02-13T16:54:55.478Z,43.53
2023-02-13T16:57:30.171Z,33.22
2023-02-13T17:00:09.752Z,30.27
2023-02-13T17:02:39.979Z,29.05
2023-02-13T17:05:21.759Z,27.50
2023-02-13T17:07:52.099Z,30.70
2023-02-13T17:10:23.903Z,31.40
2023-02-13T17:12:52.671Z,26.67
2023-02-13T17:15:23.542Z,27.83
2023-02-13T17:17:53.631Z,29.25
2023-02-13T17:20:23.426Z,29.45
2023-02-13T17:22:52.763Z,28.05
2023-02-13T17:25:24.653Z,31.45
2023-02-13T17:27:54.335Z,33.33
2023-02-13T17:30:24.643Z,30.02
2023-02-13T17:32:58.267Z,33.15
2023-02-13T17:35:26.418Z,36.28
2023-02-13T17:37:54.347Z,39.15
2023-02-13T17:40:25.361Z,35.90
2023-02-13T17:42:55.236Z,35.20
2023-02-13T17:45:26.591Z,36.80
2023-02-13T17:47:55.358Z,34.88
2023-02-13T17:50:23.790Z,38.03
2023-02-13T17:52:52.128Z,33.80
2023-02-13T17:55:24.503Z,35.10
2023-02-13T17:57:56.462Z,32.05
2023-02-13T18:00:26.962Z,39.75
2023-02-13T18:02:55.543Z,34.83
2023-02-13T18:05:23.754Z,41.28
2023-02-13T18:07:51.912Z,35.80
2023-02-13T18:10:21.965Z,31.80
2023-02-13T18:12:51.258Z,34.92
2023-02-13T18:15:21.177Z,36.95
2023-02-13T18:17:49.268Z,38.00
2023-02-13T18:20:19.967Z,35.30
2023-02-13T18:22:50.499Z,34.70
2023-02-13T18:25:19.646Z,40.40
2023-02-13T18:27:48.012Z,38.20
2023-02-13T18:30:19.026Z,39.60
2023-02-13T18:32:52.824Z,41.30
2023-02-13T18:35:20.933Z,41.08
2023-02-13T18:37:49.371Z,43.38
2023-02-13T18:40:17.801Z,43.90
2023-02-13T18:42:46.236Z,45.15
2023-02-13T18:45:14.330Z,42.50
2023-02-13T18:47:42.395Z,40.28
2023-02-13T18:50:12.525Z,38.53
2023-02-13T18:52:40.699Z,40.60
2023-02-13T18:55:09.426Z,44.30
2023-02-13T18:57:37.448Z,40.28
2023-02-13T19:00:07.234Z,39.20
2023-02-13T19:02:35.259Z,39.78
2023-02-13T19:05:03.623Z,36.83
2023-02-13T19:07:33.149Z,46.00
2023-02-13T19:10:01.137Z,41.53
2023-02-13T19:12:29.139Z,40.63
2023-02-13T19:14:57.093Z,39.10
2023-02-13T19:17:25.151Z,49.08
2023-02-13T19:19:53.115Z,41.07
2023-02-13T19:22:21.064Z,38.20
2023-02-13T19:24:50.417Z,41.83
2023-02-13T19:27:18.676Z,41.03
2023-02-13T19:29:47.909Z,47.37
2023-02-13T19:32:16.054Z,38.67
2023-02-13T19:34:44.094Z,44.10
2023-02-13T19:37:12.060Z,40.72
2023-02-13T19:39:40.235Z,36.93
2023-02-13T19:42:09.605Z,40.60
2023-02-13T19:44:37.623Z,46.27
2023-02-13T19:47:05.666Z,40.77
2023-02-13T19:49:33.612Z,39.80
2023-02-13T19:52:01.692Z,39.57
2023-02-13T19:54:29.830Z,35.27
2023-02-13T19:57:00.434Z,35.20
2023-02-13T19:59:29.932Z,38.90
2023-02-13T20:01:57.918Z,40.57
2023-02-13T20:04:25.916Z,39.60
2023-02-13T20:06:58.235Z,39.43
2023-02-13T20:09:26.377Z,38.83
2023-02-13T20:11:54.426Z,34.10
2023-02-13T20:14:22.417Z,30.03
2023-02-13T20:16:51.807Z,34.37
2023-02-13T20:19:19.865Z,33.40
2023-02-13T20:21:47.850Z,28.60
2023-02-13T20:24:15.915Z,29.80
2023-02-13T20:26:44.022Z,31.63
2023-02-13T20:29:11.967Z,30.80
2023-02-13T20:31:41.546Z,31.87
2023-02-13T20:34:11.797Z,35.30
2023-02-13T20:36:39.777Z,32.43
2023-02-13T20:39:08.980Z,24.50
2023-02-13T20:41:39.043Z,25.93
2023-02-13T20:44:09.014Z,25.07
2023-02-13T20:46:39.422Z,24.87
2023-02-13T20:49:07.624Z,24.70
2023-02-13T20:51:37.144Z,23.20
2023-02-13T20:54:05.366Z,22.53
2023-02-13T20:56:33.419Z,22.90
2023-02-13T20:59:02.585Z,22.73
2023-02-13T21:01:32.953Z,20.77
2023-02-13T21:04:01.737Z,29.10
2023-02-13T21:06:31.913Z,36.37
2023-02-13T21:09:01.920Z,34.23
2023-02-13T21:11:30.264Z,27.77
2023-02-13T21:13:58.627Z,31.53
2023-02-13T21:16:28.635Z,22.73
2023-02-13T21:18:58.672Z,20.07
2023-02-13T21:21:29.222Z,19.77
2023-02-13T21:23:59.422Z,22.60
2023-02-13T21:26:29.616Z,20.10
2023-02-13T21:28:58.240Z,24.27
2023-02-13T21:31:30.533Z,20.20
2023-02-13T21:34:00.453Z,21.50
2023-02-13T21:36:28.540Z,26.67
2023-02-13T21:38:56.552Z,24.57
2023-02-13T21:41:24.768Z,26.27
2023-02-13T21:43:54.315Z,26.27
2023-02-13T21:46:24.383Z,28.23
2023-02-13T21:48:54.592Z,29.50
2023-02-13T21:51:23.632Z,28.40
2023-02-13T21:53:52.452Z,29.67
2023-02-13T21:56:22.290Z,30.40
2023-02-13T21:58:50.808Z,29.83
2023-02-13T22:01:26.599Z,30.13
2023-02-13T22:03:57.869Z,30.87
2023-02-13T22:06:27.382Z,29.53
2023-02-13T22:08:59.739Z,29.53
2023-02-13T22:11:28.186Z,27.00
2023-02-13T22:13:57.302Z,26.77
2023-02-13T22:16:26.729Z,29.40
2023-02-13T22:18:55.794Z,28.17
2023-02-13T22:21:25.412Z,23.10
2023-02-13T22:23:53.865Z,25.80
2023-02-13T22:26:23.549Z,27.27
2023-02-13T22:28:52.305Z,24.27
2023-02-13T22:31:23.492Z,24.23
2023-02-13T22:34:04.417Z,24.10
2023-02-13T22:36:33.678Z,22.03
2023-02-13T22:39:01.680Z,25.17
2023-02-13T22:41:29.947Z,27.40
2023-02-13T22:43:58.686Z,24.93
2023-02-13T22:46:29.556Z,26.10
2023-02-13T22:48:59.966Z,28.57
2023-02-13T22:51:30.277Z,24.07
2023-02-13T22:53:59.029Z,23.00
2023-02-13T22:56:29.158Z,22.73
2023-02-13T22:58:57.444Z,24.03
2023-02-13T23:01:27.481Z,27.43
2023-02-13T23:03:55.853Z,23.17
2023-02-13T23:06:25.972Z,26.93
2023-02-13T23:08:54.423Z,27.13
2023-02-13T23:11:41.674Z,26.90
2023-02-13T23:14:10.139Z,26.03
2023-02-13T23:16:56.626Z,22.63
2023-02-13T23:19:25.489Z,28.00
2023-02-13T23:21:54.845Z,29.33
2023-02-13T23:24:23.159Z,23.93
2023-02-13T23:26:51.105Z,27.13
2023-02-13T23:29:19.299Z,27.80
2023-02-13T23:31:47.329Z,21.37
2023-02-13T23:34:15.344Z,22.90
2023-02-13T23:36:43.295Z,21.73
2023-02-13T23:39:12.653Z,23.83
2023-02-13T23:41:40.761Z,27.57
2023-02-13T23:44:08.707Z,22.83
2023-02-13T23:46:36.681Z,23.10
2023-02-13T23:49:06.558Z,27.57
2023-02-13T23:51:35.489Z,24.33
2023-02-13T23:54:03.608Z,24.50
2023-02-13T23:56:33.007Z,24.90
2023-02-13T23:59:01.065Z,27.50
